sensor_id;sensor_type;location;lat;lon;timestamp;temperature;humidity
3818;DHT22;1924;48.078;11.516;2023-07-22T04:00:52;15.50;99.90
3818;DHT22;1924;48.078;11.516;2023-07-22T04:03:19;15.40;99.90
3818;DHT22;1924;48.078;11.516;2023-07-22T04:05:53;15.40;99.90
3818;DHT22;1924;48.078;11.516;2023-07-22T04:08:20;15.40;99.90
3818;DHT22;1924;48.078;11.516;2023-07-22T04:10:51;15.40;99.90
3818;DHT22;1924;48.078;11.516;2023-07-22T04:13:18;15.40;99.90
3818;DHT22;1924;48.078;11.516;2023-07-22T04:15:45;15.40;99.90
3818;DHT22;1924;48.078;11.516;2023-07-22T04:18:14;15.50;99.90
3818;DHT22;1924;48.078;11.516;2023-07-22T04:20:41;15.50;99.90
3818;DHT22;1924;48.078;11.516;2023-07-22T04:23:08;15.50;99.90
3818;DHT22;1924;48.078;11.516;2023-07-22T04:25:39;15.50;99.90
3818;DHT22;1924;48.078;11.516;2023-07-22T04:28:05;15.50;99.90
3818;DHT22;1924;48.078;11.516;2023-07-22T04:30:33;15.50;99.90
3818;DHT22;1924;48.078;11.516;2023-07-22T04:33:00;15.50;99.90
3818;DHT22;1924;48.078;11.516;2023-07-22T04:35:30;15.60;99.90
3818;DHT22;1924;48.078;11.516;2023-07-22T04:37:57;15.70;99.90
3818;DHT22;1924;48.078;11.516;2023-07-22T04:40:24;15.70;99.90
3818;DHT22;1924;48.078;11.516;2023-07-22T04:42:51;15.80;99.90
3818;DHT22;1924;48.078;11.516;2023-07-22T04:45:18;16.00;99.90
3818;DHT22;1924;48.078;11.516;2023-07-22T04:47:45;16.20;99.90
3818;DHT22;1924;48.078;11.516;2023-07-22T04:50:14;16.20;99.90
3818;DHT22;1924;48.078;11.516;2023-07-22T04:52:44;16.30;99.90
3818;DHT22;1924;48.078;11.516;2023-07-22T04:55:12;16.30;99.90
3818;DHT22;1924;48.078;11.516;2023-07-22T04:57:39;16.40;99.90
3818;DHT22;1924;48.078;11.516;2023-07-22T05:00:07;16.40;99.90
3818;DHT22;1924;48.078;11.516;2023-07-22T05:02:38;16.50;99.90
3818;DHT22;1924;48.078;11.516;2023-07-22T05:05:06;16.50;99.90
3818;DHT22;1924;48.078;11.516;2023-07-22T05:07:35;16.50;99.90
3818;DHT22;1924;48.078;11.516;2023-07-22T05:10:03;16.50;99.90
3818;DHT22;1924;48.078;11.516;2023-07-22T05:12:30;16.60;99.90
3818;DHT22;1924;48.078;11.516;2023-07-22T05:14:57;16.70;99.90
3818;DHT22;1924;48.078;11.516;2023-07-22T05:17:23;16.80;99.90
3818;DHT22;1924;48.078;11.516;2023-07-22T05:19:51;16.80;99.90
3818;DHT22;1924;48.078;11.516;2023-07-22T05:22:18;16.90;99.90
3818;DHT22;1924;48.078;11.516;2023-07-22T05:24:45;16.90;99.90
3818;DHT22;1924;48.078;11.516;2023-07-22T05:27:13;16.90;99.90
3818;DHT22;1924;48.078;11.516;2023-07-22T05:29:40;16.80;99.90
3818;DHT22;1924;48.078;11.516;2023-07-22T05:32:08;16.70;99.90
3818;DHT22;1924;48.078;11.516;2023-07-22T05:34:35;16.70;99.90
3818;DHT22;1924;48.078;11.516;2023-07-22T05:37:05;16.70;99.90
3818;DHT22;1924;48.078;11.516;2023-07-22T05:39:32;16.70;99.90
3818;DHT22;1924;48.078;11.516;2023-07-22T05:41:58;16.80;99.90
3818;DHT22;1924;48.078;11.516;2023-07-22T05:44:26;16.80;99.90
3818;DHT22;1924;48.078;11.516;2023-07-22T05:46:53;16.80;99.90
3818;DHT22;1924;48.078;11.516;2023-07-22T05:49:20;16.90;99.90
3818;DHT22;1924;48.078;11.516;2023-07-22T05:51:47;17.00;99.90
3818;DHT22;1924;48.078;11.516;2023-07-22T05:54:14;17.10;99.90
3818;DHT22;1924;48.078;11.516;2023-07-22T05:56:41;17.10;99.90
3818;DHT22;1924;48.078;11.516;2023-07-22T05:59:08;17.20;99.90
3818;DHT22;1924;48.078;11.516;2023-07-22T06:01:36;17.30;99.90
3818;DHT22;1924;48.078;11.516;2023-07-22T06:04:04;17.50;99.90
3818;DHT22;1924;48.078;11.516;2023-07-22T06:06:31;17.60;99.90
3818;DHT22;1924;48.078;11.516;2023-07-22T06:08:58;17.70;99.90
3818;DHT22;1924;48.078;11.516;2023-07-22T06:11:24;17.80;99.90
3818;DHT22;1924;48.078;11.516;2023-07-22T06:13:51;18.00;99.90
3818;DHT22;1924;48.078;11.516;2023-07-22T06:16:22;18.10;99.90
3818;DHT22;1924;48.078;11.516;2023-07-22T06:18:50;18.20;99.90
3818;DHT22;1924;48.078;11.516;2023-07-22T06:21:16;18.10;99.90
3818;DHT22;1924;48.078;11.516;2023-07-22T06:23:43;18.10;99.90
3818;DHT22;1924;48.078;11.516;2023-07-22T06:26:10;18.30;99.90
3818;DHT22;1924;48.078;11.516;2023-07-22T06:28:37;18.70;99.90
3818;DHT22;1924;48.078;11.516;2023-07-22T06:31:04;19.20;99.90
3818;DHT22;1924;48.078;11.516;2023-07-22T06:33:33;19.50;99.90
3818;DHT22;1924;48.078;11.516;2023-07-22T06:36:19;19.60;99.90
3818;DHT22;1924;48.078;11.516;2023-07-22T06:38:51;19.20;99.90
3818;DHT22;1924;48.078;11.516;2023-07-22T06:41:20;19.10;99.90
3818;DHT22;1924;48.078;11.516;2023-07-22T06:43:49;18.90;99.90
3818;DHT22;1924;48.078;11.516;2023-07-22T06:46:17;18.60;99.90
3818;DHT22;1924;48.078;11.516;2023-07-22T06:48:44;18.50;99.90
3818;DHT22;1924;48.078;11.516;2023-07-22T06:51:10;18.50;99.90
3818;DHT22;1924;48.078;11.516;2023-07-22T06:53:39;18.50;99.90
3818;DHT22;1924;48.078;11.516;2023-07-22T06:56:06;18.60;99.90
3818;DHT22;1924;48.078;11.516;2023-07-22T06:58:35;18.80;99.90
3818;DHT22;1924;48.078;11.516;2023-07-22T07:01:02;18.80;99.90
3818;DHT22;1924;48.078;11.516;2023-07-22T07:03:29;18.90;99.90
3818;DHT22;1924;48.078;11.516;2023-07-22T07:05:56;18.80;99.90
3818;DHT22;1924;48.078;11.516;2023-07-22T07:08:23;18.90;99.90
3818;DHT22;1924;48.078;11.516;2023-07-22T07:10:52;18.90;99.90
3818;DHT22;1924;48.078;11.516;2023-07-22T07:13:19;19.00;99.90
3818;DHT22;1924;48.078;11.516;2023-07-22T07:15:48;19.10;99.90
3818;DHT22;1924;48.078;11.516;2023-07-22T07:18:15;19.00;99.90
3818;DHT22;1924;48.078;11.516;2023-07-22T07:20:43;19.10;99.90
3818;DHT22;1924;48.078;11.516;2023-07-22T07:23:10;19.20;99.90
3818;DHT22;1924;48.078;11.516;2023-07-22T07:25:37;19.30;99.90
3818;DHT22;1924;48.078;11.516;2023-07-22T07:28:05;19.50;99.90
3818;DHT22;1924;48.078;11.516;2023-07-22T07:30:32;19.70;99.90
3818;DHT22;1924;48.078;11.516;2023-07-22T07:33:05;19.90;99.90
3818;DHT22;1924;48.078;11.516;2023-07-22T07:35:31;20.10;99.90
3818;DHT22;1924;48.078;11.516;2023-07-22T07:38:01;20.20;99.90
3818;DHT22;1924;48.078;11.516;2023-07-22T07:40:29;20.60;99.90
3818;DHT22;1924;48.078;11.516;2023-07-22T07:42:57;20.80;99.90
3818;DHT22;1924;48.078;11.516;2023-07-22T07:45:26;21.00;99.90
3818;DHT22;1924;48.078;11.516;2023-07-22T07:47:54;21.10;99.90
3818;DHT22;1924;48.078;11.516;2023-07-22T07:50:21;21.20;99.90
3818;DHT22;1924;48.078;11.516;2023-07-22T07:52:48;21.30;99.90
3818;DHT22;1924;48.078;11.516;2023-07-22T07:55:15;21.40;99.90
3818;DHT22;1924;48.078;11.516;2023-07-22T07:57:42;21.40;99.90
3818;DHT22;1924;48.078;11.516;2023-07-22T08:00:09;21.40;99.90
3818;DHT22;1924;48.078;11.516;2023-07-22T08:02:37;21.40;99.90
3818;DHT22;1924;48.078;11.516;2023-07-22T08:05:05;21.30;99.80
3818;DHT22;1924;48.078;11.516;2023-07-22T08:07:32;21.10;99.40
3818;DHT22;1924;48.078;11.516;2023-07-22T08:09:59;21.30;99.80
3818;DHT22;1924;48.078;11.516;2023-07-22T08:12:40;21.20;97.20
3818;DHT22;1924;48.078;11.516;2023-07-22T08:15:10;20.90;98.20
3818;DHT22;1924;48.078;11.516;2023-07-22T08:17:41;20.90;98.50
3818;DHT22;1924;48.078;11.516;2023-07-22T08:20:08;21.10;98.90
3818;DHT22;1924;48.078;11.516;2023-07-22T08:22:36;21.30;98.50
3818;DHT22;1924;48.078;11.516;2023-07-22T08:25:08;21.40;97.40
3818;DHT22;1924;48.078;11.516;2023-07-22T08:27:58;21.20;96.30
3818;DHT22;1924;48.078;11.516;2023-07-22T08:30:25;21.40;96.40
3818;DHT22;1924;48.078;11.516;2023-07-22T08:32:54;21.50;96.30
3818;DHT22;1924;48.078;11.516;2023-07-22T08:35:21;21.60;95.50
3818;DHT22;1924;48.078;11.516;2023-07-22T08:37:48;21.70;96.30
3818;DHT22;1924;48.078;11.516;2023-07-22T08:40:15;21.60;95.00
3818;DHT22;1924;48.078;11.516;2023-07-22T08:42:49;21.70;96.30
3818;DHT22;1924;48.078;11.516;2023-07-22T08:45:17;21.70;94.00
3818;DHT22;1924;48.078;11.516;2023-07-22T08:47:47;21.60;94.40
3818;DHT22;1924;48.078;11.516;2023-07-22T08:50:23;21.60;92.50
3818;DHT22;1924;48.078;11.516;2023-07-22T08:52:53;21.70;94.20
3818;DHT22;1924;48.078;11.516;2023-07-22T08:55:20;21.80;93.90
3818;DHT22;1924;48.078;11.516;2023-07-22T08:57:48;21.90;92.50
3818;DHT22;1924;48.078;11.516;2023-07-22T09:00:16;21.90;91.30
3818;DHT22;1924;48.078;11.516;2023-07-22T09:02:45;21.80;92.70
3818;DHT22;1924;48.078;11.516;2023-07-22T09:05:12;21.90;92.80
3818;DHT22;1924;48.078;11.516;2023-07-22T09:07:40;22.00;92.50
3818;DHT22;1924;48.078;11.516;2023-07-22T09:10:14;21.90;92.10
3818;DHT22;1924;48.078;11.516;2023-07-22T09:12:42;21.70;90.70
3818;DHT22;1924;48.078;11.516;2023-07-22T09:15:10;21.80;91.80
3818;DHT22;1924;48.078;11.516;2023-07-22T09:17:38;21.70;92.30
3818;DHT22;1924;48.078;11.516;2023-07-22T09:20:07;21.40;90.00
3818;DHT22;1924;48.078;11.516;2023-07-22T09:22:34;21.30;90.30
3818;DHT22;1924;48.078;11.516;2023-07-22T09:25:15;21.50;91.60
3818;DHT22;1924;48.078;11.516;2023-07-22T09:27:42;21.60;91.30
3818;DHT22;1924;48.078;11.516;2023-07-22T09:30:21;21.70;90.70
3818;DHT22;1924;48.078;11.516;2023-07-22T09:32:48;22.00;90.90
3818;DHT22;1924;48.078;11.516;2023-07-22T09:35:16;22.10;88.50
3818;DHT22;1924;48.078;11.516;2023-07-22T09:37:43;22.10;89.40
3818;DHT22;1924;48.078;11.516;2023-07-22T09:40:19;21.80;83.80
3818;DHT22;1924;48.078;11.516;2023-07-22T09:42:48;22.00;85.90
3818;DHT22;1924;48.078;11.516;2023-07-22T09:45:15;22.20;84.30
3818;DHT22;1924;48.078;11.516;2023-07-22T09:47:43;22.40;85.10
3818;DHT22;1924;48.078;11.516;2023-07-22T09:50:20;22.50;84.60
3818;DHT22;1924;48.078;11.516;2023-07-22T09:52:48;22.60;83.70
3818;DHT22;1924;48.078;11.516;2023-07-22T09:55:18;22.80;84.00
3818;DHT22;1924;48.078;11.516;2023-07-22T09:57:50;22.90;81.70
3818;DHT22;1924;48.078;11.516;2023-07-22T10:00:18;23.00;77.60
3818;DHT22;1924;48.078;11.516;2023-07-22T10:02:47;23.00;81.10
3818;DHT22;1924;48.078;11.516;2023-07-22T10:05:16;23.10;79.80
3818;DHT22;1924;48.078;11.516;2023-07-22T10:07:45;23.20;81.20
3818;DHT22;1924;48.078;11.516;2023-07-22T10:10:14;23.20;79.10
3818;DHT22;1924;48.078;11.516;2023-07-22T10:12:43;23.20;75.10
3818;DHT22;1924;48.078;11.516;2023-07-22T10:15:14;23.10;77.20
3818;DHT22;1924;48.078;11.516;2023-07-22T10:17:43;23.10;74.40
3818;DHT22;1924;48.078;11.516;2023-07-22T10:20:11;23.20;82.50
3818;DHT22;1924;48.078;11.516;2023-07-22T10:22:44;23.30;79.10
3818;DHT22;1924;48.078;11.516;2023-07-22T10:25:17;23.50;77.60
3818;DHT22;1924;48.078;11.516;2023-07-22T10:27:47;23.70;77.10
3818;DHT22;1924;48.078;11.516;2023-07-22T10:30:15;23.90;81.10
3818;DHT22;1924;48.078;11.516;2023-07-22T10:32:45;24.10;73.50
3818;DHT22;1924;48.078;11.516;2023-07-22T10:35:22;23.80;69.00
3818;DHT22;1924;48.078;11.516;2023-07-22T10:37:49;23.90;76.30
3818;DHT22;1924;48.078;11.516;2023-07-22T10:40:25;24.00;76.60
3818;DHT22;1924;48.078;11.516;2023-07-22T10:42:56;24.10;70.30
3818;DHT22;1924;48.078;11.516;2023-07-22T10:45:25;24.20;73.80
3818;DHT22;1924;48.078;11.516;2023-07-22T10:48:05;24.50;75.10
3818;DHT22;1924;48.078;11.516;2023-07-22T10:50:42;24.60;79.30
3818;DHT22;1924;48.078;11.516;2023-07-22T10:53:11;24.80;77.50
3818;DHT22;1924;48.078;11.516;2023-07-22T10:56:05;24.90;73.80
3818;DHT22;1924;48.078;11.516;2023-07-22T11:04:13;24.70;75.80
3818;DHT22;1924;48.078;11.516;2023-07-22T11:06:52;24.90;75.30
3818;DHT22;1924;48.078;11.516;2023-07-22T11:09:37;25.00;75.40
3818;DHT22;1924;48.078;11.516;2023-07-22T11:12:06;25.20;75.80
3818;DHT22;1924;48.078;11.516;2023-07-22T11:14:37;25.10;73.10
3818;DHT22;1924;48.078;11.516;2023-07-22T11:17:06;25.10;70.80
3818;DHT22;1924;48.078;11.516;2023-07-22T11:19:33;25.20;72.50
3818;DHT22;1924;48.078;11.516;2023-07-22T11:22:01;25.20;65.50
3818;DHT22;1924;48.078;11.516;2023-07-22T11:24:28;25.10;64.30
3818;DHT22;1924;48.078;11.516;2023-07-22T11:26:55;25.10;67.80
3818;DHT22;1924;48.078;11.516;2023-07-22T11:29:22;25.00;74.00
3818;DHT22;1924;48.078;11.516;2023-07-22T11:31:51;24.50;66.00
3818;DHT22;1924;48.078;11.516;2023-07-22T11:34:20;24.30;64.10
3818;DHT22;1924;48.078;11.516;2023-07-22T11:36:47;24.00;63.00
3818;DHT22;1924;48.078;11.516;2023-07-22T11:39:16;24.10;71.20
3818;DHT22;1924;48.078;11.516;2023-07-22T11:41:43;24.60;71.50
3818;DHT22;1924;48.078;11.516;2023-07-22T11:44:12;24.50;69.50
3818;DHT22;1924;48.078;11.516;2023-07-22T11:46:47;24.50;65.60
3818;DHT22;1924;48.078;11.516;2023-07-22T11:49:22;24.40;69.20
3818;DHT22;1924;48.078;11.516;2023-07-22T11:51:49;24.20;70.00
3818;DHT22;1924;48.078;11.516;2023-07-22T11:54:20;24.50;70.30
3818;DHT22;1924;48.078;11.516;2023-07-22T11:56:47;24.70;68.00
3818;DHT22;1924;48.078;11.516;2023-07-22T11:59:14;25.00;69.00
3818;DHT22;1924;48.078;11.516;2023-07-22T12:01:45;25.10;64.50
3818;DHT22;1924;48.078;11.516;2023-07-22T12:04:13;24.80;63.70
3818;DHT22;1924;48.078;11.516;2023-07-22T12:06:41;24.80;63.10
3818;DHT22;1924;48.078;11.516;2023-07-22T12:09:09;25.10;67.80
3818;DHT22;1924;48.078;11.516;2023-07-22T12:11:36;25.10;63.60
3818;DHT22;1924;48.078;11.516;2023-07-22T12:14:10;25.30;63.50
3818;DHT22;1924;48.078;11.516;2023-07-22T12:16:38;24.90;65.00
3818;DHT22;1924;48.078;11.516;2023-07-22T12:19:06;24.50;66.20
3818;DHT22;1924;48.078;11.516;2023-07-22T12:21:33;24.50;68.10
3818;DHT22;1924;48.078;11.516;2023-07-22T12:24:02;24.70;63.70
3818;DHT22;1924;48.078;11.516;2023-07-22T12:26:29;25.10;62.80
3818;DHT22;1924;48.078;11.516;2023-07-22T12:28:56;25.30;63.70
3818;DHT22;1924;48.078;11.516;2023-07-22T12:31:24;25.20;64.40
3818;DHT22;1924;48.078;11.516;2023-07-22T12:33:51;25.20;63.80
3818;DHT22;1924;48.078;11.516;2023-07-22T12:36:18;25.00;65.10
3818;DHT22;1924;48.078;11.516;2023-07-22T12:38:45;24.60;60.90
3818;DHT22;1924;48.078;11.516;2023-07-22T12:41:15;24.50;65.10
3818;DHT22;1924;48.078;11.516;2023-07-22T12:43:42;24.80;62.20
3818;DHT22;1924;48.078;11.516;2023-07-22T12:46:08;25.20;62.30
3818;DHT22;1924;48.078;11.516;2023-07-22T12:48:35;25.20;59.50
3818;DHT22;1924;48.078;11.516;2023-07-22T12:51:02;24.80;62.80
3818;DHT22;1924;48.078;11.516;2023-07-22T12:53:29;24.50;62.10
3818;DHT22;1924;48.078;11.516;2023-07-22T12:55:56;24.10;61.30
3818;DHT22;1924;48.078;11.516;2023-07-22T12:58:27;24.00;65.80
3818;DHT22;1924;48.078;11.516;2023-07-22T13:00:54;23.80;67.80
3818;DHT22;1924;48.078;11.516;2023-07-22T13:03:21;23.90;67.30
3818;DHT22;1924;48.078;11.516;2023-07-22T13:05:48;24.00;67.20
3818;DHT22;1924;48.078;11.516;2023-07-22T13:08:14;24.40;68.50
3818;DHT22;1924;48.078;11.516;2023-07-22T13:10:41;24.60;59.90
3818;DHT22;1924;48.078;11.516;2023-07-22T13:13:12;24.80;63.80
3818;DHT22;1924;48.078;11.516;2023-07-22T13:15:40;25.30;67.10
3818;DHT22;1924;48.078;11.516;2023-07-22T13:18:07;25.60;63.50
3818;DHT22;1924;48.078;11.516;2023-07-22T13:20:34;25.70;59.60
3818;DHT22;1924;48.078;11.516;2023-07-22T13:23:01;25.50;61.40
3818;DHT22;1924;48.078;11.516;2023-07-22T13:25:27;25.70;60.70
3818;DHT22;1924;48.078;11.516;2023-07-22T13:27:55;25.50;62.60
3818;DHT22;1924;48.078;11.516;2023-07-22T13:30:22;25.60;60.20
3818;DHT22;1924;48.078;11.516;2023-07-22T13:32:50;25.60;59.30
3818;DHT22;1924;48.078;11.516;2023-07-22T13:35:18;25.80;63.10
3818;DHT22;1924;48.078;11.516;2023-07-22T13:37:45;25.80;61.00
3818;DHT22;1924;48.078;11.516;2023-07-22T13:40:12;25.70;59.10
3818;DHT22;1924;48.078;11.516;2023-07-22T13:42:39;25.30;58.00
3818;DHT22;1924;48.078;11.516;2023-07-22T13:45:07;24.90;59.80
3818;DHT22;1924;48.078;11.516;2023-07-22T13:47:36;24.70;60.00
3818;DHT22;1924;48.078;11.516;2023-07-22T13:50:05;24.80;61.80
3818;DHT22;1924;48.078;11.516;2023-07-22T13:52:32;24.60;60.80
3818;DHT22;1924;48.078;11.516;2023-07-22T13:54:58;24.40;61.90
3818;DHT22;1924;48.078;11.516;2023-07-22T13:57:25;24.40;60.20
3818;DHT22;1924;48.078;11.516;2023-07-22T13:59:52;24.10;58.50
3818;DHT22;1924;48.078;11.516;2023-07-22T14:02:19;24.30;62.10
3818;DHT22;1924;48.078;11.516;2023-07-22T14:04:45;24.60;59.10
3818;DHT22;1924;48.078;11.516;2023-07-22T14:07:14;24.70;60.50
3818;DHT22;1924;48.078;11.516;2023-07-22T14:09:41;24.80;56.30
3818;DHT22;1924;48.078;11.516;2023-07-22T14:12:08;24.90;58.20
3818;DHT22;1924;48.078;11.516;2023-07-22T14:14:35;24.80;57.20
3818;DHT22;1924;48.078;11.516;2023-07-22T14:17:02;24.60;55.90
3818;DHT22;1924;48.078;11.516;2023-07-22T14:19:30;24.20;55.30
3818;DHT22;1924;48.078;11.516;2023-07-22T14:21:56;24.20;56.70
3818;DHT22;1924;48.078;11.516;2023-07-22T14:24:24;24.40;58.70
3818;DHT22;1924;48.078;11.516;2023-07-22T14:26:52;24.70;57.70
3818;DHT22;1924;48.078;11.516;2023-07-22T14:29:18;24.80;56.00
3818;DHT22;1924;48.078;11.516;2023-07-22T14:31:46;24.80;56.50
3818;DHT22;1924;48.078;11.516;2023-07-22T14:34:13;25.00;57.20
3818;DHT22;1924;48.078;11.516;2023-07-22T14:36:40;25.10;58.90
3818;DHT22;1924;48.078;11.516;2023-07-22T14:39:07;24.90;57.10
3818;DHT22;1924;48.078;11.516;2023-07-22T14:41:36;24.70;57.20
3818;DHT22;1924;48.078;11.516;2023-07-22T14:44:03;24.80;57.00
3818;DHT22;1924;48.078;11.516;2023-07-22T14:46:30;24.80;57.40
3818;DHT22;1924;48.078;11.516;2023-07-22T14:48:56;24.70;55.10
3818;DHT22;1924;48.078;11.516;2023-07-22T14:51:23;24.60;54.50
3818;DHT22;1924;48.078;11.516;2023-07-22T14:53:50;24.70;55.90
3818;DHT22;1924;48.078;11.516;2023-07-22T14:56:16;24.80;56.50
3818;DHT22;1924;48.078;11.516;2023-07-22T14:58:45;24.60;55.30
3818;DHT22;1924;48.078;11.516;2023-07-22T15:01:11;24.60;55.70
3818;DHT22;1924;48.078;11.516;2023-07-22T15:03:38;24.60;56.40
3818;DHT22;1924;48.078;11.516;2023-07-22T15:06:05;24.50;55.70
3818;DHT22;1924;48.078;11.516;2023-07-22T15:08:32;24.60;56.30
3818;DHT22;1924;48.078;11.516;2023-07-22T15:10:59;24.60;56.90
3818;DHT22;1924;48.078;11.516;2023-07-22T15:13:27;24.60;57.20
3818;DHT22;1924;48.078;11.516;2023-07-22T15:15:55;24.70;57.20
3818;DHT22;1924;48.078;11.516;2023-07-22T15:18:22;24.60;56.70
3818;DHT22;1924;48.078;11.516;2023-07-22T15:20:50;24.50;54.50
3818;DHT22;1924;48.078;11.516;2023-07-22T15:23:17;24.30;54.20
3818;DHT22;1924;48.078;11.516;2023-07-22T15:25:46;24.20;54.70
3818;DHT22;1924;48.078;11.516;2023-07-22T15:28:13;23.90;55.60
3818;DHT22;1924;48.078;11.516;2023-07-22T15:30:40;23.90;56.60
3818;DHT22;1924;48.078;11.516;2023-07-22T15:33:08;23.90;56.70
3818;DHT22;1924;48.078;11.516;2023-07-22T15:35:35;24.00;55.00
3818;DHT22;1924;48.078;11.516;2023-07-22T15:38:02;24.00;55.20
3818;DHT22;1924;48.078;11.516;2023-07-22T15:40:33;24.20;56.00
3818;DHT22;1924;48.078;11.516;2023-07-22T15:43:01;24.20;56.70
3818;DHT22;1924;48.078;11.516;2023-07-22T15:45:28;24.30;56.30
3818;DHT22;1924;48.078;11.516;2023-07-22T15:47:54;24.10;56.30
3818;DHT22;1924;48.078;11.516;2023-07-22T15:50:23;24.20;57.10
3818;DHT22;1924;48.078;11.516;2023-07-22T15:52:49;24.10;57.20
3818;DHT22;1924;48.078;11.516;2023-07-22T15:55:16;24.00;56.70
3818;DHT22;1924;48.078;11.516;2023-07-22T15:57:43;24.10;56.00
3818;DHT22;1924;48.078;11.516;2023-07-22T16:00:10;24.00;56.10
3818;DHT22;1924;48.078;11.516;2023-07-22T16:02:38;24.10;56.50
3818;DHT22;1924;48.078;11.516;2023-07-22T16:05:06;24.10;58.70
3818;DHT22;1924;48.078;11.516;2023-07-22T16:07:36;24.00;56.40
3818;DHT22;1924;48.078;11.516;2023-07-22T16:10:03;23.90;57.30
3818;DHT22;1924;48.078;11.516;2023-07-22T16:12:30;24.00;57.50
3818;DHT22;1924;48.078;11.516;2023-07-22T16:14:57;23.90;56.40
3818;DHT22;1924;48.078;11.516;2023-07-22T16:17:24;23.90;55.90
3818;DHT22;1924;48.078;11.516;2023-07-22T16:19:51;23.90;56.00
3818;DHT22;1924;48.078;11.516;2023-07-22T16:22:17;23.90;56.20
3818;DHT22;1924;48.078;11.516;2023-07-22T16:24:46;23.90;56.40
3818;DHT22;1924;48.078;11.516;2023-07-22T16:27:12;23.90;56.30
3818;DHT22;1924;48.078;11.516;2023-07-22T16:29:39;23.90;57.30
3818;DHT22;1924;48.078;11.516;2023-07-22T16:32:07;23.80;57.60
3818;DHT22;1924;48.078;11.516;2023-07-22T16:34:34;23.80;56.00
3818;DHT22;1924;48.078;11.516;2023-07-22T16:37:01;23.80;56.10
3818;DHT22;1924;48.078;11.516;2023-07-22T16:39:28;23.80;55.70
3818;DHT22;1924;48.078;11.516;2023-07-22T16:41:56;23.80;55.70
3818;DHT22;1924;48.078;11.516;2023-07-22T16:44:23;23.70;55.70
3818;DHT22;1924;48.078;11.516;2023-07-22T16:46:53;23.60;57.00
3818;DHT22;1924;48.078;11.516;2023-07-22T16:49:20;23.50;56.40
3818;DHT22;1924;48.078;11.516;2023-07-22T16:51:47;23.50;57.00
3818;DHT22;1924;48.078;11.516;2023-07-22T16:54:14;23.50;57.00
3818;DHT22;1924;48.078;11.516;2023-07-22T16:56:41;23.40;57.60
3818;DHT22;1924;48.078;11.516;2023-07-22T16:59:09;23.40;57.10
3818;DHT22;1924;48.078;11.516;2023-07-22T17:01:36;23.50;56.70
3818;DHT22;1924;48.078;11.516;2023-07-22T17:04:04;23.40;57.80
3818;DHT22;1924;48.078;11.516;2023-07-22T17:06:32;23.40;58.70
3818;DHT22;1924;48.078;11.516;2023-07-22T17:08:58;23.40;58.90
3818;DHT22;1924;48.078;11.516;2023-07-22T17:11:25;23.40;61.40
3818;DHT22;1924;48.078;11.516;2023-07-22T17:13:52;23.30;59.60
3818;DHT22;1924;48.078;11.516;2023-07-22T17:16:21;23.30;58.80
3818;DHT22;1924;48.078;11.516;2023-07-22T17:18:47;23.30;59.20
3818;DHT22;1924;48.078;11.516;2023-07-22T17:21:17;23.20;59.20
3818;DHT22;1924;48.078;11.516;2023-07-22T17:23:44;23.20;59.00
3818;DHT22;1924;48.078;11.516;2023-07-22T17:26:11;23.10;59.10
3818;DHT22;1924;48.078;11.516;2023-07-22T17:28:37;23.00;60.10
3818;DHT22;1924;48.078;11.516;2023-07-22T17:31:04;23.00;59.30
3818;DHT22;1924;48.078;11.516;2023-07-22T17:33:32;23.00;59.20
3818;DHT22;1924;48.078;11.516;2023-07-22T17:35:59;22.90;58.80
3818;DHT22;1924;48.078;11.516;2023-07-22T17:38:26;22.90;59.70
3818;DHT22;1924;48.078;11.516;2023-07-22T17:40:55;22.90;58.50
3818;DHT22;1924;48.078;11.516;2023-07-22T17:43:22;22.80;58.70
3818;DHT22;1924;48.078;11.516;2023-07-22T17:45:48;22.90;60.30
3818;DHT22;1924;48.078;11.516;2023-07-22T17:48:15;22.80;59.60
3818;DHT22;1924;48.078;11.516;2023-07-22T17:50:43;22.80;58.80
3818;DHT22;1924;48.078;11.516;2023-07-22T17:53:13;22.70;58.90
3818;DHT22;1924;48.078;11.516;2023-07-22T17:55:40;22.70;59.80
3818;DHT22;1924;48.078;11.516;2023-07-22T17:58:11;22.60;59.30
3818;DHT22;1924;48.078;11.516;2023-07-22T18:00:38;22.60;60.20
3818;DHT22;1924;48.078;11.516;2023-07-22T18:03:05;22.50;59.80
3818;DHT22;1924;48.078;11.516;2023-07-22T18:05:32;22.50;61.20
3818;DHT22;1924;48.078;11.516;2023-07-22T18:08:04;22.40;62.20
3818;DHT22;1924;48.078;11.516;2023-07-22T18:10:31;22.40;62.30
3818;DHT22;1924;48.078;11.516;2023-07-22T18:12:58;22.30;64.00
3818;DHT22;1924;48.078;11.516;2023-07-22T18:15:25;22.30;64.40
3818;DHT22;1924;48.078;11.516;2023-07-22T18:17:52;22.30;66.00
3818;DHT22;1924;48.078;11.516;2023-07-22T18:20:18;22.20;66.70
3818;DHT22;1924;48.078;11.516;2023-07-22T18:22:48;22.10;66.80
3818;DHT22;1924;48.078;11.516;2023-07-22T18:25:17;22.10;66.70
3818;DHT22;1924;48.078;11.516;2023-07-22T18:27:43;22.10;67.60
3818;DHT22;1924;48.078;11.516;2023-07-22T18:30:11;22.00;68.50
3818;DHT22;1924;48.078;11.516;2023-07-22T18:32:41;22.00;66.90
3818;DHT22;1924;48.078;11.516;2023-07-22T18:35:09;21.90;68.40
3818;DHT22;1924;48.078;11.516;2023-07-22T18:37:36;21.80;67.80
3818;DHT22;1924;48.078;11.516;2023-07-22T18:40:04;21.80;69.90
3818;DHT22;1924;48.078;11.516;2023-07-22T18:42:33;21.70;69.40
3818;DHT22;1924;48.078;11.516;2023-07-22T18:45:00;21.70;70.60
3818;DHT22;1924;48.078;11.516;2023-07-22T18:47:27;21.70;69.60
3818;DHT22;1924;48.078;11.516;2023-07-22T18:49:54;21.60;68.90
3818;DHT22;1924;48.078;11.516;2023-07-22T18:52:20;21.50;70.90
3818;DHT22;1924;48.078;11.516;2023-07-22T18:54:56;21.50;70.10
3818;DHT22;1924;48.078;11.516;2023-07-22T18:57:23;21.40;69.50
3818;DHT22;1924;48.078;11.516;2023-07-22T18:59:51;21.30;69.80
3818;DHT22;1924;48.078;11.516;2023-07-22T19:02:18;21.30;70.60
3818;DHT22;1924;48.078;11.516;2023-07-22T19:04:45;21.20;71.20
3818;DHT22;1924;48.078;11.516;2023-07-22T19:07:11;21.20;71.00
3818;DHT22;1924;48.078;11.516;2023-07-22T19:09:38;21.10;72.10
3818;DHT22;1924;48.078;11.516;2023-07-22T19:12:06;21.00;71.70
3818;DHT22;1924;48.078;11.516;2023-07-22T19:14:33;21.00;72.30
3818;DHT22;1924;48.078;11.516;2023-07-22T19:17:02;20.90;72.70
3818;DHT22;1924;48.078;11.516;2023-07-22T19:19:29;20.90;72.00
3818;DHT22;1924;48.078;11.516;2023-07-22T19:21:56;20.80;72.70
3818;DHT22;1924;48.078;11.516;2023-07-22T19:24:23;20.80;73.20
3818;DHT22;1924;48.078;11.516;2023-07-22T19:26:50;20.70;73.60
3818;DHT22;1924;48.078;11.516;2023-07-22T19:29:17;20.70;72.90
3818;DHT22;1924;48.078;11.516;2023-07-22T19:31:43;20.60;73.30
3818;DHT22;1924;48.078;11.516;2023-07-22T19:34:12;20.60;74.00
3818;DHT22;1924;48.078;11.516;2023-07-22T19:36:39;20.50;73.10
3818;DHT22;1924;48.078;11.516;2023-07-22T19:39:06;20.50;72.80
3818;DHT22;1924;48.078;11.516;2023-07-22T19:41:48;20.50;73.60
3818;DHT22;1924;48.078;11.516;2023-07-22T19:44:15;20.40;73.60
3818;DHT22;1924;48.078;11.516;2023-07-22T19:46:51;20.40;73.40
3818;DHT22;1924;48.078;11.516;2023-07-22T19:49:26;20.30;74.00
3818;DHT22;1924;48.078;11.516;2023-07-22T19:51:54;20.30;74.20
3818;DHT22;1924;48.078;11.516;2023-07-22T19:54:21;20.30;74.20
3818;DHT22;1924;48.078;11.516;2023-07-22T19:56:48;20.20;74.50